createdAt,value
2019-03-17T00:02:11.275Z,3.97
2019-03-17T00:04:42.722Z,3.97
2019-03-17T00:07:13.864Z,3.58
2019-03-17T00:09:45.724Z,3.81
2019-03-17T00:12:16.664Z,3.78
2019-03-17T00:14:47.645Z,3.89
2019-03-17T00:17:18.227Z,3.85
2019-03-17T00:19:48.547Z,3.66
2019-03-17T00:22:19.385Z,3.62
2019-03-17T00:24:50.566Z,3.61
2019-03-17T00:27:20.952Z,3.52
2019-03-17T00:29:51.685Z,3.54
2019-03-17T00:32:23.994Z,3.55
2019-03-17T00:34:54.482Z,3.59
2019-03-17T00:37:25.007Z,3.51
2019-03-17T00:39:55.432Z,3.51
2019-03-17T00:42:26.805Z,3.47
2019-03-17T00:44:57.716Z,3.44
2019-03-17T00:47:28.154Z,3.51
2019-03-17T00:50:00.719Z,3.49
2019-03-17T00:52:31.205Z,3.50
2019-03-17T00:55:02.502Z,3.63
2019-03-17T00:57:33.363Z,3.65
2019-03-17T01:00:06.031Z,3.60
2019-03-17T01:02:36.886Z,3.64
2019-03-17T01:05:08.186Z,3.75
2019-03-17T01:07:39.049Z,3.72
2019-03-17T01:10:10.060Z,3.77
2019-03-17T01:12:44.946Z,3.78
2019-03-17T01:15:15.115Z,3.88
2019-03-17T01:17:48.202Z,3.85
2019-03-17T01:20:18.553Z,3.83
2019-03-17T01:22:49.149Z,3.79
2019-03-17T01:25:19.571Z,3.83
2019-03-17T01:27:50.203Z,3.85
2019-03-17T01:30:21.696Z,3.82
2019-03-17T01:32:52.286Z,3.83
2019-03-17T01:35:23.014Z,3.76
2019-03-17T01:37:53.643Z,3.76
2019-03-17T01:40:24.175Z,3.79
2019-03-17T01:42:54.803Z,3.79
2019-03-17T01:45:26.084Z,3.91
2019-03-17T01:47:56.517Z,3.90
2019-03-17T01:50:27.209Z,3.96
2019-03-17T01:52:57.836Z,4.01
2019-03-17T01:55:28.670Z,4.04
2019-03-17T01:57:59.197Z,4.04
2019-03-17T02:00:30.544Z,4.08
2019-03-17T02:03:00.649Z,4.12
2019-03-17T02:05:31.192Z,4.15
2019-03-17T02:08:01.616Z,4.14
2019-03-17T02:10:32.657Z,4.08
2019-03-17T02:13:03.602Z,4.10
2019-03-17T02:15:33.710Z,4.12
2019-03-17T02:18:04.239Z,4.10
2019-03-17T02:20:35.110Z,4.07
2019-03-17T02:23:06.055Z,4.05
2019-03-17T02:25:36.537Z,4.09
2019-03-17T02:28:07.054Z,4.11
2019-03-17T02:30:37.554Z,4.05
2019-03-17T02:33:08.227Z,4.09
2019-03-17T02:35:40.215Z,4.10
2019-03-17T02:38:10.920Z,4.09
2019-03-17T02:40:41.448Z,4.17
2019-03-17T02:43:12.177Z,4.09
2019-03-17T02:45:43.012Z,4.10
2019-03-17T02:48:13.134Z,4.14
2019-03-17T02:50:44.478Z,4.14
2019-03-17T02:53:14.798Z,4.15
2019-03-17T02:55:45.427Z,4.21
2019-03-17T02:58:16.578Z,4.19
2019-03-17T03:00:47.107Z,4.25
2019-03-17T03:03:18.448Z,4.20
2019-03-17T03:05:55.355Z,4.21
2019-03-17T03:08:23.181Z,4.24
2019-03-17T03:10:55.867Z,4.29
2019-03-17T03:13:26.293Z,4.31
2019-03-17T03:15:58.565Z,4.32
2019-03-17T03:18:28.993Z,4.31
2019-03-17T03:21:00.973Z,4.30
2019-03-17T03:23:31.470Z,4.28
2019-03-17T03:26:02.692Z,4.31
2019-03-17T03:28:33.146Z,4.34
2019-03-17T03:31:04.500Z,4.30
2019-03-17T03:33:34.807Z,4.33
2019-03-17T03:36:11.229Z,4.35
2019-03-17T03:38:40.273Z,4.35
2019-03-17T03:41:10.558Z,4.31
2019-03-17T03:43:41.222Z,4.29
2019-03-17T03:46:12.179Z,4.28
2019-03-17T03:48:44.000Z,4.24
2019-03-17T03:51:15.786Z,4.25
2019-03-17T03:53:46.688Z,4.28
2019-03-17T03:56:17.749Z,4.26
2019-03-17T03:58:50.026Z,4.28
2019-03-17T04:01:20.242Z,4.30
2019-03-17T04:03:50.894Z,4.27
2019-03-17T04:06:26.892Z,4.28
2019-03-17T04:08:53.358Z,4.33
2019-03-17T04:11:24.134Z,4.28
2019-03-17T04:13:54.830Z,4.27
2019-03-17T04:16:25.467Z,4.31
2019-03-17T04:18:55.996Z,4.34
2019-03-17T04:21:28.235Z,4.33
2019-03-17T04:23:58.634Z,4.36
2019-03-17T04:26:30.025Z,4.37
2019-03-17T04:29:00.180Z,4.40
2019-03-17T04:31:31.083Z,4.42
2019-03-17T04:34:01.706Z,4.28
2019-03-17T04:36:40.160Z,4.46
2019-03-17T04:39:06.861Z,4.50
2019-03-17T04:41:37.182Z,4.55
2019-03-17T04:44:20.005Z,4.54
2019-03-17T04:46:40.679Z,4.48
2019-03-17T04:49:11.360Z,4.51
2019-03-17T04:51:42.054Z,4.53
2019-03-17T04:54:12.791Z,4.54
2019-03-17T04:56:44.631Z,4.63
2019-03-17T04:59:15.378Z,4.68
2019-03-17T05:01:46.113Z,4.61
2019-03-17T05:04:17.584Z,4.62
2019-03-17T05:06:52.585Z,4.70
2019-03-17T05:09:21.181Z,4.68
2019-03-17T05:11:52.041Z,4.76
2019-03-17T05:14:22.850Z,4.82
2019-03-17T05:16:54.436Z,4.84
2019-03-17T05:19:25.643Z,4.81
2019-03-17T05:21:55.967Z,4.78
2019-03-17T05:24:26.911Z,4.78
2019-03-17T05:26:57.533Z,4.85
2019-03-17T05:29:28.371Z,4.88
2019-03-17T05:31:59.410Z,5.00
2019-03-17T05:34:29.785Z,5.03
2019-03-17T05:37:06.574Z,5.24
2019-03-17T05:39:33.244Z,5.31
2019-03-17T05:42:03.978Z,5.39
2019-03-17T05:44:34.492Z,5.27
2019-03-17T05:47:06.054Z,5.18
2019-03-17T05:49:37.281Z,5.16
2019-03-17T05:52:08.574Z,5.04
2019-03-17T05:54:38.971Z,5.04
2019-03-17T05:57:09.409Z,5.10
2019-03-17T05:59:40.827Z,5.16
2019-03-17T06:02:12.814Z,5.27
2019-03-17T06:04:44.358Z,5.32
2019-03-17T06:07:18.945Z,5.42
2019-03-17T06:09:48.592Z,5.60
2019-03-17T06:12:21.263Z,5.56
2019-03-17T06:14:51.792Z,5.46
2019-03-17T06:17:22.525Z,5.82
2019-03-17T06:19:53.770Z,6.36
2019-03-17T06:22:25.323Z,6.36
2019-03-17T06:24:56.769Z,6.39
2019-03-17T06:27:28.631Z,6.50
2019-03-17T06:29:58.847Z,6.50
2019-03-17T06:32:29.582Z,6.29
2019-03-17T06:35:00.361Z,6.05
2019-03-17T06:37:31.494Z,6.02
2019-03-17T06:40:02.910Z,6.19
2019-03-17T06:42:33.606Z,6.36
2019-03-17T06:45:05.494Z,6.60
2019-03-17T06:47:35.738Z,6.78
2019-03-17T06:50:13.946Z,6.83
2019-03-17T06:52:44.351Z,6.75
2019-03-17T06:55:16.683Z,6.83
2019-03-17T06:57:47.044Z,6.52
2019-03-17T07:00:17.877Z,6.72
2019-03-17T07:02:48.381Z,6.62
2019-03-17T07:05:19.138Z,6.33
2019-03-17T07:07:50.434Z,6.34
2019-03-17T07:10:22.769Z,6.47
2019-03-17T07:12:53.497Z,7.05
2019-03-17T07:15:25.155Z,6.99
2019-03-17T07:17:55.470Z,6.63
2019-03-17T07:20:26.299Z,6.66
2019-03-17T07:22:57.101Z,6.84
2019-03-17T07:25:27.663Z,6.91
2019-03-17T07:27:59.135Z,6.62
2019-03-17T07:30:29.535Z,6.33
2019-03-17T07:33:00.828Z,6.30
2019-03-17T07:35:33.642Z,6.43
2019-03-17T07:38:04.905Z,6.47
2019-03-17T07:40:35.636Z,7.00
2019-03-17T07:43:06.375Z,7.30
2019-03-17T07:45:39.362Z,7.74
2019-03-17T07:48:09.958Z,7.91
2019-03-17T07:50:40.821Z,7.99
2019-03-17T07:53:12.284Z,8.18
2019-03-17T07:55:42.594Z,7.96
2019-03-17T07:58:13.327Z,7.77
2019-03-17T08:00:44.037Z,7.60
2019-03-17T08:03:14.687Z,7.51
2019-03-17T08:05:45.627Z,7.32
2019-03-17T08:08:16.374Z,7.33
2019-03-17T08:10:47.409Z,7.26
2019-03-17T08:13:18.651Z,7.09
2019-03-17T08:15:49.364Z,7.13
2019-03-17T08:18:19.898Z,7.26
2019-03-17T08:20:50.065Z,7.43
2019-03-17T08:23:21.545Z,7.17
2019-03-17T08:25:53.712Z,6.89
2019-03-17T08:28:25.789Z,6.76
2019-03-17T08:30:56.330Z,6.66
2019-03-17T08:33:27.288Z,6.70
2019-03-17T08:35:59.027Z,6.70
2019-03-17T08:38:30.983Z,6.77
2019-03-17T08:41:02.765Z,6.73
2019-03-17T08:43:33.471Z,6.87
2019-03-17T08:46:03.681Z,7.22
2019-03-17T08:48:34.233Z,7.54
2019-03-17T08:51:04.747Z,7.97
2019-03-17T08:53:35.397Z,8.07
2019-03-17T08:56:06.641Z,8.65
2019-03-17T08:58:36.945Z,8.58
2019-03-17T09:01:08.479Z,7.84
2019-03-17T09:03:40.559Z,7.53
2019-03-17T09:06:11.292Z,7.55
2019-03-17T09:08:42.620Z,7.19
2019-03-17T09:11:15.421Z,6.90
2019-03-17T09:13:45.955Z,6.86
2019-03-17T09:16:16.588Z,7.07
2019-03-17T09:18:47.130Z,7.34
2019-03-17T09:21:19.108Z,7.37
2019-03-17T09:23:49.933Z,7.42
2019-03-17T09:26:22.273Z,8.91
2019-03-17T09:28:53.723Z,9.52
2019-03-17T09:31:23.910Z,9.66
2019-03-17T09:33:55.660Z,9.85
2019-03-17T09:36:27.247Z,9.39
2019-03-17T09:38:58.210Z,9.08
2019-03-17T09:41:28.745Z,8.91
2019-03-17T09:43:59.345Z,8.54
2019-03-17T09:46:30.489Z,8.34
2019-03-17T09:49:01.939Z,8.52
2019-03-17T09:51:32.358Z,8.62
2019-03-17T09:54:02.893Z,8.51
2019-03-17T09:56:35.313Z,8.60
2019-03-17T09:59:05.790Z,8.88
2019-03-17T10:01:36.479Z,8.50
2019-03-17T10:04:10.933Z,8.58
2019-03-17T10:06:41.356Z,8.29
2019-03-17T10:09:11.890Z,8.20
2019-03-17T10:11:42.619Z,7.94
2019-03-17T10:14:13.156Z,7.78
2019-03-17T10:16:44.085Z,7.89
2019-03-17T10:19:14.365Z,7.61
2019-03-17T10:21:45.042Z,7.89
2019-03-17T10:24:15.571Z,7.96
2019-03-17T10:26:46.202Z,8.01
2019-03-17T10:29:17.133Z,8.08
2019-03-17T10:31:48.456Z,8.34
2019-03-17T10:34:19.727Z,8.61
2019-03-17T10:36:49.946Z,8.95
2019-03-17T10:39:22.123Z,9.39
2019-03-17T10:41:54.287Z,9.75
2019-03-17T10:44:24.715Z,9.71
2019-03-17T10:46:56.205Z,9.03
2019-03-17T10:49:27.239Z,8.47
2019-03-17T10:51:58.520Z,8.01
2019-03-17T10:54:28.979Z,7.87
2019-03-17T10:56:59.902Z,7.86
2019-03-17T10:59:30.639Z,7.58
2019-03-17T11:02:01.296Z,7.56
2019-03-17T11:04:31.893Z,7.50
2019-03-17T11:07:05.497Z,7.64
2019-03-17T11:09:36.728Z,8.07
2019-03-17T11:12:08.112Z,8.16
2019-03-17T11:14:38.923Z,8.27
2019-03-17T11:17:09.664Z,8.41
2019-03-17T11:19:40.219Z,8.81
2019-03-17T11:22:12.156Z,8.66
2019-03-17T11:24:43.681Z,8.60
2019-03-17T11:27:14.019Z,9.07
2019-03-17T11:29:47.006Z,9.18
2019-03-17T11:32:17.235Z,9.16
2019-03-17T11:34:47.958Z,10.38
2019-03-17T11:37:18.486Z,12.02
2019-03-17T11:39:51.029Z,14.30
2019-03-17T11:42:22.337Z,17.25
2019-03-17T11:44:53.139Z,15.72
2019-03-17T11:47:23.670Z,14.15
2019-03-17T11:49:54.607Z,12.12
2019-03-17T11:52:27.154Z,10.09
2019-03-17T11:54:58.447Z,9.39
2019-03-17T11:57:28.643Z,8.57
2019-03-17T12:00:02.249Z,8.06
2019-03-17T12:02:32.565Z,7.68
2019-03-17T12:05:04.527Z,7.57
2019-03-17T12:07:35.669Z,7.51
2019-03-17T12:10:11.931Z,7.72
2019-03-17T12:12:43.264Z,7.65
2019-03-17T12:15:21.820Z,7.62
2019-03-17T12:17:52.321Z,7.61
2019-03-17T12:20:22.667Z,7.57
2019-03-17T12:22:53.047Z,7.66
2019-03-17T12:25:24.242Z,7.83
2019-03-17T12:27:54.853Z,7.90
2019-03-17T12:30:30.202Z,7.97
2019-03-17T12:33:00.610Z,7.98
2019-03-17T12:35:31.131Z,8.19
2019-03-17T12:38:01.878Z,8.41
2019-03-17T12:40:32.393Z,8.52
2019-03-17T12:43:03.917Z,8.91
2019-03-17T12:45:34.574Z,9.14
2019-03-17T12:48:05.416Z,9.43
2019-03-17T12:50:35.755Z,9.42
2019-03-17T12:53:08.025Z,9.93
2019-03-17T12:55:38.840Z,10.01
2019-03-17T12:58:09.490Z,10.04
2019-03-17T13:00:42.556Z,10.36
2019-03-17T13:03:14.827Z,11.04
2019-03-17T13:05:45.473Z,10.85
2019-03-17T13:08:16.989Z,10.51
2019-03-17T13:10:49.666Z,9.98
2019-03-17T13:13:19.806Z,9.11
2019-03-17T13:15:51.157Z,8.96
2019-03-17T13:18:21.782Z,8.69
2019-03-17T13:20:53.958Z,8.13
2019-03-17T13:23:26.522Z,7.94
2019-03-17T13:25:58.662Z,7.82
2019-03-17T13:28:29.731Z,7.83
2019-03-17T13:30:59.904Z,7.88
2019-03-17T13:33:32.935Z,7.78
2019-03-17T13:36:03.573Z,7.52
2019-03-17T13:38:34.085Z,7.44
2019-03-17T13:41:05.027Z,7.41
2019-03-17T13:43:35.516Z,7.14
2019-03-17T13:46:05.975Z,7.07
2019-03-17T13:48:36.965Z,7.15
2019-03-17T13:51:08.878Z,7.33
2019-03-17T13:53:40.367Z,7.53
2019-03-17T13:56:12.070Z,7.62
2019-03-17T13:58:43.313Z,7.79
2019-03-17T14:01:13.947Z,8.07
2019-03-17T14:03:46.434Z,8.21
2019-03-17T14:06:17.380Z,8.36
2019-03-17T14:08:48.956Z,8.09
2019-03-17T14:11:19.349Z,8.24
2019-03-17T14:13:49.875Z,8.26
2019-03-17T14:16:21.534Z,8.31
2019-03-17T14:18:52.165Z,8.14
2019-03-17T14:21:24.487Z,8.03
2019-03-17T14:23:54.955Z,7.68
2019-03-17T14:26:25.389Z,7.39
2019-03-17T14:28:56.005Z,7.35
2019-03-17T14:31:29.581Z,7.27
2019-03-17T14:34:00.032Z,7.18
2019-03-17T14:36:31.993Z,7.13
2019-03-17T14:39:02.930Z,7.05
2019-03-17T14:41:34.449Z,7.04
2019-03-17T14:44:04.600Z,6.98
2019-03-17T14:46:35.833Z,7.00
2019-03-17T14:49:07.192Z,7.01
2019-03-17T14:51:37.516Z,6.96
2019-03-17T14:54:08.249Z,6.89
2019-03-17T14:56:38.973Z,6.94
2019-03-17T14:59:12.393Z,6.88
2019-03-17T15:01:42.800Z,6.91
2019-03-17T15:04:13.423Z,6.80
2019-03-17T15:06:45.085Z,6.77
2019-03-17T15:09:15.906Z,6.80
2019-03-17T15:11:47.372Z,6.80
2019-03-17T15:14:17.995Z,6.80
2019-03-17T15:16:48.321Z,6.78
2019-03-17T15:19:21.098Z,6.79
2019-03-17T15:21:51.670Z,6.66
2019-03-17T15:24:24.337Z,6.63
2019-03-17T15:26:54.725Z,6.58
2019-03-17T15:29:28.026Z,6.53
2019-03-17T15:31:59.343Z,6.54
2019-03-17T15:34:30.493Z,6.54
2019-03-17T15:37:04.899Z,6.48
2019-03-17T15:39:34.640Z,6.50
2019-03-17T15:42:04.762Z,6.55
2019-03-17T15:44:35.299Z,6.55
2019-03-17T15:47:07.448Z,6.51
2019-03-17T15:49:38.390Z,6.57
2019-03-17T15:52:08.713Z,6.61
2019-03-17T15:54:39.219Z,6.58
2019-03-17T15:57:13.253Z,6.53
2019-03-17T15:59:43.790Z,6.45
2019-03-17T16:02:14.303Z,6.55
2019-03-17T16:04:45.242Z,6.52
2019-03-17T16:07:16.078Z,6.49
2019-03-17T16:09:47.334Z,6.49
2019-03-17T16:12:18.771Z,6.47
2019-03-17T16:14:50.721Z,6.48
2019-03-17T16:17:22.285Z,6.49
2019-03-17T16:19:52.505Z,6.47
2019-03-17T16:22:23.550Z,6.46
2019-03-17T16:24:57.142Z,6.46
2019-03-17T16:27:29.226Z,6.43
2019-03-17T16:30:00.553Z,6.41
2019-03-17T16:32:31.684Z,6.46
2019-03-17T16:35:05.806Z,6.40
2019-03-17T16:37:37.039Z,6.31
2019-03-17T16:40:19.015Z,6.30
2019-03-17T16:42:53.803Z,6.26
2019-03-17T16:45:24.303Z,6.18
2019-03-17T16:47:55.034Z,6.17
2019-03-17T16:50:28.131Z,6.10
2019-03-17T16:53:00.476Z,6.02
2019-03-17T16:55:33.569Z,5.99
2019-03-17T16:58:04.514Z,5.99
2019-03-17T17:00:35.864Z,5.93
2019-03-17T17:03:06.343Z,5.93
2019-03-17T17:05:37.771Z,5.85
2019-03-17T17:08:08.473Z,5.87
2019-03-17T17:10:39.303Z,5.89
2019-03-17T17:13:10.138Z,5.83
2019-03-17T17:15:40.834Z,5.79
2019-03-17T17:18:11.708Z,5.76
2019-03-17T17:20:42.648Z,5.78
2019-03-17T17:23:14.060Z,5.78
2019-03-17T17:25:45.241Z,5.71
2019-03-17T17:28:15.967Z,5.69
2019-03-17T17:30:47.007Z,5.66
2019-03-17T17:33:21.021Z,5.67
2019-03-17T17:35:52.515Z,5.70
2019-03-17T17:38:23.826Z,5.66
2019-03-17T17:40:54.233Z,5.59
2019-03-17T17:43:25.572Z,5.50
2019-03-17T17:45:56.318Z,5.43
2019-03-17T17:48:27.052Z,5.40
2019-03-17T17:50:57.539Z,5.27
2019-03-17T17:53:29.854Z,5.22
2019-03-17T17:56:00.784Z,5.19
2019-03-17T17:58:31.416Z,5.13
2019-03-17T18:01:02.147Z,5.04
2019-03-17T18:03:35.134Z,4.95
2019-03-17T18:06:06.486Z,4.89
2019-03-17T18:08:36.856Z,4.78
2019-03-17T18:11:07.387Z,4.66
2019-03-17T18:13:38.370Z,4.61
2019-03-17T18:16:09.622Z,4.49
2019-03-17T18:18:40.968Z,4.38
2019-03-17T18:21:11.692Z,4.33
2019-03-17T18:23:43.459Z,4.26
2019-03-17T18:26:14.036Z,4.19
2019-03-17T18:28:44.914Z,4.24
2019-03-17T18:31:19.238Z,4.20
2019-03-17T18:33:50.064Z,4.15
2019-03-17T18:36:20.826Z,4.15
2019-03-17T18:38:51.453Z,4.25
2019-03-17T18:41:22.145Z,4.30
2019-03-17T18:43:53.417Z,4.31
2019-03-17T18:46:24.038Z,4.22
2019-03-17T18:48:56.203Z,4.17
2019-03-17T18:51:28.312Z,4.03
2019-03-17T18:53:59.001Z,4.09
2019-03-17T18:56:29.730Z,4.01
2019-03-17T18:59:00.155Z,4.13
2019-03-17T19:01:30.847Z,4.09
2019-03-17T19:04:01.623Z,4.08
2019-03-17T19:06:32.311Z,4.14
2019-03-17T19:09:03.907Z,4.06
2019-03-17T19:11:34.539Z,3.99
2019-03-17T19:14:05.473Z,3.96
2019-03-17T19:16:36.203Z,3.92
2019-03-17T19:19:06.936Z,3.89
2019-03-17T19:21:38.590Z,3.80
2019-03-17T19:24:10.348Z,3.74
2019-03-17T19:26:40.976Z,3.66
2019-03-17T19:29:11.577Z,3.61
2019-03-17T19:31:42.339Z,3.54
2019-03-17T19:34:13.029Z,3.52
2019-03-17T19:36:43.904Z,3.54
2019-03-17T19:39:16.172Z,3.55
2019-03-17T19:41:46.695Z,3.52
2019-03-17T19:44:17.701Z,3.58
2019-03-17T19:46:48.467Z,3.73
2019-03-17T19:49:19.316Z,3.66
2019-03-17T19:51:50.046Z,3.60
2019-03-17T19:54:20.876Z,3.52
2019-03-17T19:56:51.608Z,3.48
2019-03-17T19:59:22.244Z,3.46
2019-03-17T20:01:52.563Z,3.42
2019-03-17T20:04:30.344Z,3.34
2019-03-17T20:06:55.667Z,3.29
2019-03-17T20:09:26.350Z,3.27
2019-03-17T20:11:57.232Z,3.31
2019-03-17T20:14:27.955Z,3.26
2019-03-17T20:16:59.384Z,3.23
2019-03-17T20:19:30.251Z,3.33
2019-03-17T20:22:02.733Z,3.33
2019-03-17T20:24:33.456Z,3.27
2019-03-17T20:27:04.186Z,3.30
2019-03-17T20:29:37.241Z,3.26
2019-03-17T20:32:08.110Z,3.23
2019-03-17T20:34:39.151Z,3.27
2019-03-17T20:37:09.881Z,3.20
2019-03-17T20:39:40.488Z,3.13
2019-03-17T20:42:12.546Z,3.04
2019-03-17T20:44:43.204Z,2.95
2019-03-17T20:47:13.837Z,2.89
2019-03-17T20:49:46.102Z,2.90
2019-03-17T20:52:17.656Z,2.87
2019-03-17T20:54:48.128Z,2.88
2019-03-17T20:57:19.532Z,2.84
2019-03-17T20:59:50.161Z,2.78
2019-03-17T21:02:20.550Z,2.79
2019-03-17T21:04:51.828Z,2.77
2019-03-17T21:07:24.404Z,2.73
2019-03-17T21:09:54.961Z,2.70
2019-03-17T21:12:25.767Z,2.65
2019-03-17T21:14:58.051Z,2.68
2019-03-17T21:17:28.393Z,2.68
2019-03-17T21:20:00.719Z,2.63
2019-03-17T21:22:31.359Z,2.59
2019-03-17T21:25:02.083Z,2.56
2019-03-17T21:27:32.735Z,2.54
2019-03-17T21:30:03.835Z,2.54
2019-03-17T21:32:35.515Z,2.57
2019-03-17T21:35:05.837Z,2.47
2019-03-17T21:37:36.370Z,2.40
2019-03-17T21:40:10.212Z,2.36
2019-03-17T21:42:40.501Z,2.39
2019-03-17T21:45:16.164Z,2.36
2019-03-17T21:47:46.812Z,2.39
2019-03-17T21:50:21.341Z,2.35
2019-03-17T21:52:51.513Z,2.32
2019-03-17T21:55:21.837Z,2.31
2019-03-17T21:57:52.424Z,2.38
2019-03-17T22:00:23.300Z,2.45
2019-03-17T22:02:55.369Z,2.41
2019-03-17T22:05:26.305Z,2.23
2019-03-17T22:07:56.944Z,2.14
2019-03-17T22:10:27.765Z,2.11
2019-03-17T22:12:58.703Z,2.10
2019-03-17T22:15:29.437Z,2.11
2019-03-17T22:18:01.906Z,2.25
2019-03-17T22:20:32.551Z,2.18
2019-03-17T22:23:03.888Z,2.15
2019-03-17T22:25:34.210Z,2.21
2019-03-17T22:28:08.518Z,2.17
2019-03-17T22:30:37.518Z,2.13
2019-03-17T22:33:08.250Z,2.08
2019-03-17T22:35:39.088Z,2.02
2019-03-17T22:38:10.555Z,1.98
2019-03-17T22:40:42.556Z,1.87
2019-03-17T22:43:14.291Z,1.91
2019-03-17T22:45:45.394Z,1.86
2019-03-17T22:48:16.208Z,1.78
2019-03-17T22:50:49.215Z,1.79
2019-03-17T22:53:20.150Z,1.78
2019-03-17T22:55:51.192Z,1.74
2019-03-17T22:58:21.516Z,1.71
2019-03-17T23:00:52.554Z,1.67
2019-03-17T23:03:22.771Z,1.62
2019-03-17T23:05:53.195Z,1.60
2019-03-17T23:08:25.600Z,1.68
2019-03-17T23:10:56.610Z,1.61
2019-03-17T23:13:27.876Z,1.52
2019-03-17T23:15:57.977Z,1.50
2019-03-17T23:18:29.121Z,1.26
2019-03-17T23:20:59.949Z,1.48
2019-03-17T23:23:31.906Z,1.43
2019-03-17T23:26:02.337Z,1.41
2019-03-17T23:28:33.275Z,1.38
2019-03-17T23:31:03.788Z,1.39
2019-03-17T23:33:34.669Z,1.37
2019-03-17T23:36:05.228Z,1.32
2019-03-17T23:38:35.996Z,1.33
2019-03-17T23:41:06.685Z,1.29
2019-03-17T23:43:37.460Z,1.26
2019-03-17T23:46:08.190Z,1.29
2019-03-17T23:48:38.924Z,1.35
2019-03-17T23:51:10.375Z,1.32
2019-03-17T23:53:40.685Z,1.32
2019-03-17T23:56:12.462Z,1.24
2019-03-17T23:58:45.125Z,1.24
